sensor_id;sensor_type;location;lat;lon;timestamp;pressure;altitude;pressure_sealevel;temperature;humidity
29169;BME280;16219;42.864;23.360;2023-04-30T00:01:38;95568.06;;;9.07;100.00
29169;BME280;16219;42.864;23.360;2023-04-30T00:04:05;95563.56;;;9.08;100.00
29169;BME280;16219;42.864;23.360;2023-04-30T00:06:32;95567.56;;;8.96;100.00
29169;BME280;16219;42.864;23.360;2023-04-30T00:08:59;95570.47;;;8.86;100.00
29169;BME280;16219;42.864;23.360;2023-04-30T00:11:26;95573.81;;;8.78;100.00
29169;BME280;16219;42.864;23.360;2023-04-30T00:13:53;95567.75;;;8.69;100.00
29169;BME280;16219;42.864;23.360;2023-04-30T00:16:21;95567.75;;;8.69;100.00
29169;BME280;16219;42.864;23.360;2023-04-30T00:18:50;95574.56;;;8.70;100.00
29169;BME280;16219;42.864;23.360;2023-04-30T00:21:17;95565.44;;;8.67;100.00
29169;BME280;16219;42.864;23.360;2023-04-30T00:23:44;95571.13;;;8.61;100.00
29169;BME280;16219;42.864;23.360;2023-04-30T00:26:11;95566.91;;;8.51;100.00
29169;BME280;16219;42.864;23.360;2023-04-30T00:28:39;95572.34;;;8.55;100.00
29169;BME280;16219;42.864;23.360;2023-04-30T00:31:06;95575.56;;;8.51;100.00
29169;BME280;16219;42.864;23.360;2023-04-30T00:33:33;95574.63;;;8.47;100.00
29169;BME280;16219;42.864;23.360;2023-04-30T00:36:02;95575.72;;;8.46;100.00
29169;BME280;16219;42.864;23.360;2023-04-30T00:38:29;95578.47;;;8.41;100.00
29169;BME280;16219;42.864;23.360;2023-04-30T00:40:56;95574.19;;;8.32;100.00
29169;BME280;16219;42.864;23.360;2023-04-30T00:43:23;95572.31;;;8.32;100.00
29169;BME280;16219;42.864;23.360;2023-04-30T00:45:50;95575.41;;;8.25;100.00
29169;BME280;16219;42.864;23.360;2023-04-30T00:48:17;95573.19;;;8.19;100.00
29169;BME280;16219;42.864;23.360;2023-04-30T00:50:45;95574.84;;;8.15;100.00
29169;BME280;16219;42.864;23.360;2023-04-30T00:53:13;95572.47;;;8.05;100.00
29169;BME280;16219;42.864;23.360;2023-04-30T00:55:40;95572.59;;;7.99;100.00
29169;BME280;16219;42.864;23.360;2023-04-30T00:58:08;95578.63;;;8.00;100.00
29169;BME280;16219;42.864;23.360;2023-04-30T01:00:35;95577.09;;;7.99;100.00
29169;BME280;16219;42.864;23.360;2023-04-30T01:03:03;95575.03;;;7.96;100.00
29169;BME280;16219;42.864;23.360;2023-04-30T01:05:29;95566.41;;;7.95;100.00
29169;BME280;16219;42.864;23.360;2023-04-30T01:07:57;95566.50;;;7.90;100.00
29169;BME280;16219;42.864;23.360;2023-04-30T01:10:29;95569.72;;;7.87;100.00
29169;BME280;16219;42.864;23.360;2023-04-30T01:13:03;95565.56;;;7.86;100.00
29169;BME280;16219;42.864;23.360;2023-04-30T01:15:33;95563.44;;;7.74;100.00
29169;BME280;16219;42.864;23.360;2023-04-30T01:18:06;95566.84;;;7.75;100.00
29169;BME280;16219;42.864;23.360;2023-04-30T01:20:38;95573.00;;;7.70;100.00
29169;BME280;16219;42.864;23.360;2023-04-30T01:23:14;95570.69;;;7.69;100.00
29169;BME280;16219;42.864;23.360;2023-04-30T01:25:56;95578.56;;;7.69;100.00
29169;BME280;16219;42.864;23.360;2023-04-30T01:28:30;95570.06;;;7.72;100.00
29169;BME280;16219;42.864;23.360;2023-04-30T01:30:58;95577.69;;;7.60;100.00
29169;BME280;16219;42.864;23.360;2023-04-30T01:33:25;95571.84;;;7.63;100.00
29169;BME280;16219;42.864;23.360;2023-04-30T01:36:08;95580.91;;;7.57;100.00
29169;BME280;16219;42.864;23.360;2023-04-30T01:38:47;95575.66;;;7.57;100.00
29169;BME280;16219;42.864;23.360;2023-04-30T01:41:21;95575.28;;;7.49;100.00
29169;BME280;16219;42.864;23.360;2023-04-30T01:44:01;95572.78;;;7.44;100.00
29169;BME280;16219;42.864;23.360;2023-04-30T01:46:32;95575.41;;;7.44;100.00
29169;BME280;16219;42.864;23.360;2023-04-30T01:49:07;95577.25;;;7.44;100.00
29169;BME280;16219;42.864;23.360;2023-04-30T01:51:40;95574.31;;;7.45;100.00
29169;BME280;16219;42.864;23.360;2023-04-30T01:54:15;95570.72;;;7.41;100.00
29169;BME280;16219;42.864;23.360;2023-04-30T01:56:50;95577.81;;;7.41;100.00
29169;BME280;16219;42.864;23.360;2023-04-30T01:59:21;95572.97;;;7.34;100.00
29169;BME280;16219;42.864;23.360;2023-04-30T02:01:49;95552.59;;;7.17;100.00
29169;BME280;16219;42.864;23.360;2023-04-30T02:04:16;95570.44;;;7.29;100.00
29169;BME280;16219;42.864;23.360;2023-04-30T02:06:44;95564.06;;;7.08;100.00
29169;BME280;16219;42.864;23.360;2023-04-30T02:09:11;95565.81;;;7.12;100.00
29169;BME280;16219;42.864;23.360;2023-04-30T02:11:38;95572.78;;;7.17;100.00
29169;BME280;16219;42.864;23.360;2023-04-30T02:14:05;95571.06;;;7.12;100.00
29169;BME280;16219;42.864;23.360;2023-04-30T02:16:33;95571.25;;;7.16;100.00
29169;BME280;16219;42.864;23.360;2023-04-30T02:19:00;95572.03;;;7.16;100.00
29169;BME280;16219;42.864;23.360;2023-04-30T02:21:27;95578.81;;;7.17;100.00
29169;BME280;16219;42.864;23.360;2023-04-30T02:23:54;95571.25;;;7.16;100.00
29169;BME280;16219;42.864;23.360;2023-04-30T02:26:21;95567.09;;;7.15;100.00
29169;BME280;16219;42.864;23.360;2023-04-30T02:28:48;95574.44;;;7.13;100.00
29169;BME280;16219;42.864;23.360;2023-04-30T02:31:15;95567.56;;;7.17;100.00
29169;BME280;16219;42.864;23.360;2023-04-30T02:33:46;95568.16;;;7.14;100.00
29169;BME280;16219;42.864;23.360;2023-04-30T02:36:13;95566.00;;;7.16;100.00
29169;BME280;16219;42.864;23.360;2023-04-30T02:38:40;95571.06;;;7.12;100.00
29169;BME280;16219;42.864;23.360;2023-04-30T02:41:07;95570.84;;;7.09;100.00
29169;BME280;16219;42.864;23.360;2023-04-30T02:43:35;95568.84;;;7.06;100.00
29169;BME280;16219;42.864;23.360;2023-04-30T02:46:02;95579.69;;;7.13;100.00
29169;BME280;16219;42.864;23.360;2023-04-30T02:48:29;95578.03;;;7.17;100.00
29169;BME280;16219;42.864;23.360;2023-04-30T02:50:57;95576.31;;;7.12;100.00
29169;BME280;16219;42.864;23.360;2023-04-30T02:53:24;95578.25;;;7.07;100.00
29169;BME280;16219;42.864;23.360;2023-04-30T02:55:51;95580.66;;;7.17;100.00
29169;BME280;16219;42.864;23.360;2023-04-30T02:58:18;95586.41;;;7.19;100.00
29169;BME280;16219;42.864;23.360;2023-04-30T03:00:45;95584.16;;;7.26;100.00
29169;BME280;16219;42.864;23.360;2023-04-30T03:03:12;95583.56;;;7.29;100.00
29169;BME280;16219;42.864;23.360;2023-04-30T03:05:39;95583.31;;;7.31;100.00
29169;BME280;16219;42.864;23.360;2023-04-30T03:08:08;95586.00;;;7.39;100.00
29169;BME280;16219;42.864;23.360;2023-04-30T03:10:35;95592.03;;;7.40;100.00
29169;BME280;16219;42.864;23.360;2023-04-30T03:13:02;95589.41;;;7.40;100.00
29169;BME280;16219;42.864;23.360;2023-04-30T03:15:31;95576.19;;;7.17;100.00
29169;BME280;16219;42.864;23.360;2023-04-30T03:17:58;95590.13;;;7.18;100.00
29169;BME280;16219;42.864;23.360;2023-04-30T03:20:25;95589.91;;;7.28;100.00
29169;BME280;16219;42.864;23.360;2023-04-30T03:22:52;95588.31;;;7.41;100.00
29169;BME280;16219;42.864;23.360;2023-04-30T03:25:20;95596.28;;;7.49;100.00
29169;BME280;16219;42.864;23.360;2023-04-30T03:27:47;95594.03;;;7.57;100.00
29169;BME280;16219;42.864;23.360;2023-04-30T03:30:14;95593.94;;;7.62;100.00
29169;BME280;16219;42.864;23.360;2023-04-30T03:32:42;95593.22;;;7.70;100.00
29169;BME280;16219;42.864;23.360;2023-04-30T03:35:09;95590.59;;;7.70;100.00
29169;BME280;16219;42.864;23.360;2023-04-30T03:37:36;95595.25;;;7.73;100.00
29169;BME280;16219;42.864;23.360;2023-04-30T03:40:03;95602.53;;;7.76;100.00
29169;BME280;16219;42.864;23.360;2023-04-30T03:42:32;95605.16;;;7.76;100.00
29169;BME280;16219;42.864;23.360;2023-04-30T03:44:59;95606.91;;;7.81;100.00
29169;BME280;16219;42.864;23.360;2023-04-30T03:47:26;95607.16;;;7.93;100.00
29169;BME280;16219;42.864;23.360;2023-04-30T03:49:53;95605.31;;;7.93;100.00
29169;BME280;16219;42.864;23.360;2023-04-30T03:52:21;95602.78;;;7.88;100.00
29169;BME280;16219;42.864;23.360;2023-04-30T03:54:49;95612.44;;;7.79;100.00
29169;BME280;16219;42.864;23.360;2023-04-30T03:57:17;95617.78;;;7.88;100.00
29169;BME280;16219;42.864;23.360;2023-04-30T03:59:46;95616.19;;;8.00;100.00
29169;BME280;16219;42.864;23.360;2023-04-30T04:02:14;95619.72;;;8.18;100.00
29169;BME280;16219;42.864;23.360;2023-04-30T04:04:41;95622.34;;;8.18;100.00
29169;BME280;16219;42.864;23.360;2023-04-30T04:07:09;95617.25;;;8.22;100.00
29169;BME280;16219;42.864;23.360;2023-04-30T04:09:36;95620.53;;;8.41;100.00
29169;BME280;16219;42.864;23.360;2023-04-30T04:12:03;95609.56;;;8.48;100.00
29169;BME280;16219;42.864;23.360;2023-04-30T04:14:30;95618.69;;;8.73;100.00
29169;BME280;16219;42.864;23.360;2023-04-30T04:16:59;95624.44;;;8.75;100.00
29169;BME280;16219;42.864;23.360;2023-04-30T04:19:27;95619.44;;;9.05;100.00
29169;BME280;16219;42.864;23.360;2023-04-30T04:21:56;95616.50;;;9.98;100.00
29169;BME280;16219;42.864;23.360;2023-04-30T04:24:24;95627.78;;;11.23;100.00
29169;BME280;16219;42.864;23.360;2023-04-30T04:26:51;95635.66;;;11.91;100.00
29169;BME280;16219;42.864;23.360;2023-04-30T04:29:18;95640.16;;;12.12;100.00
29169;BME280;16219;42.864;23.360;2023-04-30T04:31:45;95647.50;;;11.85;100.00
29169;BME280;16219;42.864;23.360;2023-04-30T04:34:15;95641.31;;;12.02;100.00
29169;BME280;16219;42.864;23.360;2023-04-30T04:36:46;95621.69;;;12.45;100.00
29169;BME280;16219;42.864;23.360;2023-04-30T04:39:13;95657.50;;;13.70;100.00
29169;BME280;16219;42.864;23.360;2023-04-30T04:41:40;95642.00;;;14.49;100.00
29169;BME280;16219;42.864;23.360;2023-04-30T04:44:08;95646.34;;;14.29;100.00
29169;BME280;16219;42.864;23.360;2023-04-30T04:46:35;95653.25;;;14.06;100.00
29169;BME280;16219;42.864;23.360;2023-04-30T04:49:04;95653.22;;;13.53;100.00
29169;BME280;16219;42.864;23.360;2023-04-30T04:51:35;95655.22;;;12.98;100.00
29169;BME280;16219;42.864;23.360;2023-04-30T04:54:04;95656.03;;;12.33;100.00
29169;BME280;16219;42.864;23.360;2023-04-30T04:56:32;95644.72;;;11.82;100.00
29169;BME280;16219;42.864;23.360;2023-04-30T04:59:00;95657.41;;;11.59;100.00
29169;BME280;16219;42.864;23.360;2023-04-30T05:01:27;95659.72;;;11.39;100.00
29169;BME280;16219;42.864;23.360;2023-04-30T05:03:56;95662.38;;;10.92;100.00
29169;BME280;16219;42.864;23.360;2023-04-30T05:06:23;95651.88;;;10.66;100.00
29169;BME280;16219;42.864;23.360;2023-04-30T05:08:53;95656.69;;;10.56;100.00
29169;BME280;16219;42.864;23.360;2023-04-30T05:11:20;95654.84;;;10.39;100.00
29169;BME280;16219;42.864;23.360;2023-04-30T05:13:50;95652.97;;;10.48;100.00
29169;BME280;16219;42.864;23.360;2023-04-30T05:16:17;95651.59;;;10.50;100.00
29169;BME280;16219;42.864;23.360;2023-04-30T05:18:44;95654.84;;;10.47;100.00
29169;BME280;16219;42.864;23.360;2023-04-30T05:21:12;95652.22;;;10.30;100.00
29169;BME280;16219;42.864;23.360;2023-04-30T05:23:39;95648.31;;;10.27;100.00
29169;BME280;16219;42.864;23.360;2023-04-30T05:26:07;95649.91;;;10.29;100.00
29169;BME280;16219;42.864;23.360;2023-04-30T05:28:34;95655.47;;;10.36;100.00
29169;BME280;16219;42.864;23.360;2023-04-30T05:31:02;95655.00;;;10.51;100.00
29169;BME280;16219;42.864;23.360;2023-04-30T05:33:29;95661.19;;;10.55;100.00
29169;BME280;16219;42.864;23.360;2023-04-30T05:35:56;95657.94;;;10.49;100.00
29169;BME280;16219;42.864;23.360;2023-04-30T05:38:23;95655.75;;;10.51;100.00
29169;BME280;16219;42.864;23.360;2023-04-30T05:40:51;95658.22;;;10.57;100.00
29169;BME280;16219;42.864;23.360;2023-04-30T05:43:19;95660.25;;;10.60;100.00
29169;BME280;16219;42.864;23.360;2023-04-30T05:45:46;95656.66;;;10.73;100.00
29169;BME280;16219;42.864;23.360;2023-04-30T05:48:14;95662.22;;;10.80;100.00
29169;BME280;16219;42.864;23.360;2023-04-30T05:50:41;95661.00;;;10.69;100.00
29169;BME280;16219;42.864;23.360;2023-04-30T05:53:09;95654.75;;;10.82;100.00
29169;BME280;16219;42.864;23.360;2023-04-30T05:55:36;95652.56;;;11.01;100.00
29169;BME280;16219;42.864;23.360;2023-04-30T05:58:03;95647.22;;;11.19;100.00
29169;BME280;16219;42.864;23.360;2023-04-30T06:00:32;95652.91;;;11.30;100.00
29169;BME280;16219;42.864;23.360;2023-04-30T06:03:00;95655.78;;;11.45;100.00
29169;BME280;16219;42.864;23.360;2023-04-30T06:05:28;95651.56;;;11.53;100.00
29169;BME280;16219;42.864;23.360;2023-04-30T06:07:55;95658.56;;;11.49;100.00
29169;BME280;16219;42.864;23.360;2023-04-30T06:10:23;95646.72;;;11.17;100.00
29169;BME280;16219;42.864;23.360;2023-04-30T06:12:50;95664.94;;;11.48;100.00
29169;BME280;16219;42.864;23.360;2023-04-30T06:15:18;95668.66;;;11.85;100.00
29169;BME280;16219;42.864;23.360;2023-04-30T06:17:47;95667.94;;;12.18;100.00
29169;BME280;16219;42.864;23.360;2023-04-30T06:20:15;95665.28;;;12.60;100.00
29169;BME280;16219;42.864;23.360;2023-04-30T06:22:42;95662.91;;;12.79;100.00
29169;BME280;16219;42.864;23.360;2023-04-30T06:25:10;95660.31;;;13.04;100.00
29169;BME280;16219;42.864;23.360;2023-04-30T06:27:37;95663.25;;;13.23;100.00
29169;BME280;16219;42.864;23.360;2023-04-30T06:30:05;95668.09;;;13.33;100.00
29169;BME280;16219;42.864;23.360;2023-04-30T06:32:33;95668.88;;;13.46;100.00
29169;BME280;16219;42.864;23.360;2023-04-30T06:35:02;95657.72;;;13.77;100.00
29169;BME280;16219;42.864;23.360;2023-04-30T06:37:30;95656.91;;;14.01;100.00
29169;BME280;16219;42.864;23.360;2023-04-30T06:40:02;95650.88;;;14.29;100.00
29169;BME280;16219;42.864;23.360;2023-04-30T06:42:29;95654.00;;;14.46;100.00
29169;BME280;16219;42.864;23.360;2023-04-30T06:44:59;95645.84;;;14.52;100.00
29169;BME280;16219;42.864;23.360;2023-04-30T06:47:27;95648.78;;;14.62;100.00
29169;BME280;16219;42.864;23.360;2023-04-30T06:49:54;95642.06;;;14.96;100.00
29169;BME280;16219;42.864;23.360;2023-04-30T06:52:23;95646.13;;;15.22;97.61
29169;BME280;16219;42.864;23.360;2023-04-30T06:54:50;95643.88;;;15.40;100.00
29169;BME280;16219;42.864;23.360;2023-04-30T06:57:18;95641.88;;;15.53;100.00
29169;BME280;16219;42.864;23.360;2023-04-30T06:59:45;95650.66;;;16.04;100.00
29169;BME280;16219;42.864;23.360;2023-04-30T07:02:13;95646.00;;;16.36;98.50
29169;BME280;16219;42.864;23.360;2023-04-30T07:04:40;95638.97;;;16.47;93.46
29169;BME280;16219;42.864;23.360;2023-04-30T07:07:08;95641.56;;;16.44;91.02
29169;BME280;16219;42.864;23.360;2023-04-30T07:09:37;95642.59;;;16.39;93.62
29169;BME280;16219;42.864;23.360;2023-04-30T07:12:05;95634.84;;;16.50;97.48
29169;BME280;16219;42.864;23.360;2023-04-30T07:14:32;95639.88;;;16.74;95.94
29169;BME280;16219;42.864;23.360;2023-04-30T07:17:00;95643.41;;;17.02;96.15
29169;BME280;16219;42.864;23.360;2023-04-30T07:19:27;95648.91;;;16.89;90.78
29169;BME280;16219;42.864;23.360;2023-04-30T07:21:55;95649.78;;;16.74;97.25
29169;BME280;16219;42.864;23.360;2023-04-30T07:24:22;95650.44;;;16.71;88.55
29169;BME280;16219;42.864;23.360;2023-04-30T07:26:50;95642.91;;;16.54;92.83
29169;BME280;16219;42.864;23.360;2023-04-30T07:29:18;95639.94;;;16.39;94.18
29169;BME280;16219;42.864;23.360;2023-04-30T07:31:45;95640.78;;;16.24;100.00
29169;BME280;16219;42.864;23.360;2023-04-30T07:34:12;95648.75;;;16.05;99.30
29169;BME280;16219;42.864;23.360;2023-04-30T07:36:39;95641.47;;;16.02;99.96
29169;BME280;16219;42.864;23.360;2023-04-30T07:39:07;95653.50;;;15.95;98.51
29169;BME280;16219;42.864;23.360;2023-04-30T07:41:36;95646.75;;;15.82;99.77
29169;BME280;16219;42.864;23.360;2023-04-30T07:44:05;95650.19;;;15.83;100.00
29169;BME280;16219;42.864;23.360;2023-04-30T07:46:32;95647.97;;;15.85;100.00
29169;BME280;16219;42.864;23.360;2023-04-30T07:48:59;95652.28;;;15.73;100.00
29169;BME280;16219;42.864;23.360;2023-04-30T07:51:27;95649.69;;;15.61;100.00
29169;BME280;16219;42.864;23.360;2023-04-30T07:53:54;95659.91;;;15.43;100.00
29169;BME280;16219;42.864;23.360;2023-04-30T07:56:21;95657.44;;;15.35;100.00
29169;BME280;16219;42.864;23.360;2023-04-30T07:58:48;95667.13;;;15.27;100.00
29169;BME280;16219;42.864;23.360;2023-04-30T08:01:17;95663.78;;;15.30;100.00
29169;BME280;16219;42.864;23.360;2023-04-30T08:03:44;95665.72;;;15.33;100.00
29169;BME280;16219;42.864;23.360;2023-04-30T08:06:12;95661.88;;;15.31;100.00
29169;BME280;16219;42.864;23.360;2023-04-30T08:08:39;95665.72;;;15.33;100.00
29169;BME280;16219;42.864;23.360;2023-04-30T08:11:06;95665.72;;;15.33;100.00
29169;BME280;16219;42.864;23.360;2023-04-30T08:13:34;95661.44;;;15.44;100.00
29169;BME280;16219;42.864;23.360;2023-04-30T08:16:01;95654.78;;;15.50;100.00
29169;BME280;16219;42.864;23.360;2023-04-30T08:18:30;95663.75;;;15.62;100.00
29169;BME280;16219;42.864;23.360;2023-04-30T08:20:58;95670.81;;;15.70;100.00
29169;BME280;16219;42.864;23.360;2023-04-30T08:23:26;95666.31;;;15.90;100.00
29169;BME280;16219;42.864;23.360;2023-04-30T08:25:53;95663.75;;;16.13;100.00
29169;BME280;16219;42.864;23.360;2023-04-30T08:28:20;95647.25;;;16.23;100.00
29169;BME280;16219;42.864;23.360;2023-04-30T08:30:48;95661.09;;;16.52;100.00
29169;BME280;16219;42.864;23.360;2023-04-30T08:33:15;95664.63;;;16.75;100.00
29169;BME280;16219;42.864;23.360;2023-04-30T08:35:44;95662.16;;;16.86;100.00
29169;BME280;16219;42.864;23.360;2023-04-30T08:38:11;95658.41;;;16.90;100.00
29169;BME280;16219;42.864;23.360;2023-04-30T08:40:38;95660.38;;;16.93;100.00
29169;BME280;16219;42.864;23.360;2023-04-30T08:43:07;95651.69;;;16.96;100.00
29169;BME280;16219;42.864;23.360;2023-04-30T08:45:35;95655.19;;;17.23;100.00
29169;BME280;16219;42.864;23.360;2023-04-30T08:48:05;95641.28;;;17.60;100.00
29169;BME280;16219;42.864;23.360;2023-04-30T08:50:37;95637.88;;;17.86;91.97
29169;BME280;16219;42.864;23.360;2023-04-30T08:53:06;95632.88;;;18.11;93.35
29169;BME280;16219;42.864;23.360;2023-04-30T08:55:34;95633.63;;;18.42;93.92
29169;BME280;16219;42.864;23.360;2023-04-30T08:58:02;95623.91;;;18.60;89.70
29169;BME280;16219;42.864;23.360;2023-04-30T09:00:31;95615.09;;;18.93;86.29
29169;BME280;16219;42.864;23.360;2023-04-30T09:02:59;95610.34;;;19.17;93.70
29169;BME280;16219;42.864;23.360;2023-04-30T09:05:27;95616.69;;;19.02;87.39
29169;BME280;16219;42.864;23.360;2023-04-30T09:07:54;95616.41;;;18.69;84.34
29169;BME280;16219;42.864;23.360;2023-04-30T09:10:24;95610.81;;;18.52;87.83
29169;BME280;16219;42.864;23.360;2023-04-30T09:12:59;95618.59;;;18.30;89.79
29169;BME280;16219;42.864;23.360;2023-04-30T09:15:27;95615.59;;;18.02;91.01
29169;BME280;16219;42.864;23.360;2023-04-30T09:18:11;95626.28;;;17.75;94.56
29169;BME280;16219;42.864;23.360;2023-04-30T09:20:56;95631.78;;;17.36;100.00
29169;BME280;16219;42.864;23.360;2023-04-30T09:23:24;95634.16;;;16.95;100.00
29169;BME280;16219;42.864;23.360;2023-04-30T09:25:53;95627.75;;;16.58;100.00
29169;BME280;16219;42.864;23.360;2023-04-30T09:28:21;95618.59;;;16.36;100.00
29169;BME280;16219;42.864;23.360;2023-04-30T09:30:52;95627.19;;;15.90;100.00
29169;BME280;16219;42.864;23.360;2023-04-30T09:33:19;95624.41;;;15.52;100.00
29169;BME280;16219;42.864;23.360;2023-04-30T09:35:46;95619.09;;;15.52;100.00
29169;BME280;16219;42.864;23.360;2023-04-30T09:38:27;95620.81;;;15.44;100.00
29169;BME280;16219;42.864;23.360;2023-04-30T09:40:57;95630.00;;;15.31;100.00
29169;BME280;16219;42.864;23.360;2023-04-30T09:43:25;95621.06;;;15.23;100.00
29169;BME280;16219;42.864;23.360;2023-04-30T09:45:52;95619.38;;;15.15;100.00
29169;BME280;16219;42.864;23.360;2023-04-30T09:48:21;95610.44;;;15.07;100.00
29169;BME280;16219;42.864;23.360;2023-04-30T09:50:49;95608.41;;;15.00;100.00
29169;BME280;16219;42.864;23.360;2023-04-30T09:53:17;95597.50;;;15.06;100.00
29169;BME280;16219;42.864;23.360;2023-04-30T09:55:46;95587.22;;;14.88;100.00
29169;BME280;16219;42.864;23.360;2023-04-30T09:58:16;95588.50;;;14.94;100.00
29169;BME280;16219;42.864;23.360;2023-04-30T10:00:44;95589.69;;;15.29;100.00
29169;BME280;16219;42.864;23.360;2023-04-30T10:03:13;95583.72;;;15.67;100.00
29169;BME280;16219;42.864;23.360;2023-04-30T10:05:42;95580.81;;;15.91;100.00
29169;BME280;16219;42.864;23.360;2023-04-30T10:08:20;95582.09;;;16.36;100.00
29169;BME280;16219;42.864;23.360;2023-04-30T10:10:50;95586.97;;;16.34;100.00
29169;BME280;16219;42.864;23.360;2023-04-30T10:13:20;95591.59;;;16.18;100.00
29169;BME280;16219;42.864;23.360;2023-04-30T10:15:50;95591.69;;;16.02;100.00
29169;BME280;16219;42.864;23.360;2023-04-30T10:18:22;95593.97;;;15.84;100.00
29169;BME280;16219;42.864;23.360;2023-04-30T10:20:54;95605.00;;;15.67;100.00
29169;BME280;16219;42.864;23.360;2023-04-30T10:23:23;95606.84;;;15.47;100.00
29169;BME280;16219;42.864;23.360;2023-04-30T10:25:50;95614.50;;;15.17;100.00
29169;BME280;16219;42.864;23.360;2023-04-30T10:28:26;95605.72;;;15.16;100.00
29169;BME280;16219;42.864;23.360;2023-04-30T10:31:00;95612.41;;;15.10;100.00
29169;BME280;16219;42.864;23.360;2023-04-30T10:33:43;95610.78;;;15.06;100.00
29169;BME280;16219;42.864;23.360;2023-04-30T10:36:25;95617.38;;;15.12;100.00
29169;BME280;16219;42.864;23.360;2023-04-30T10:38:59;95609.31;;;15.24;100.00
29169;BME280;16219;42.864;23.360;2023-04-30T10:41:28;95611.72;;;15.29;100.00
29169;BME280;16219;42.864;23.360;2023-04-30T10:44:00;95608.06;;;15.34;100.00
29169;BME280;16219;42.864;23.360;2023-04-30T10:46:29;95601.16;;;15.48;100.00
29169;BME280;16219;42.864;23.360;2023-04-30T10:48:57;95598.41;;;15.61;100.00
29169;BME280;16219;42.864;23.360;2023-04-30T10:51:43;95598.22;;;15.69;100.00
29169;BME280;16219;42.864;23.360;2023-04-30T10:54:13;95597.53;;;15.72;100.00
29169;BME280;16219;42.864;23.360;2023-04-30T10:56:44;95608.84;;;16.05;100.00
29169;BME280;16219;42.864;23.360;2023-04-30T10:59:13;95613.38;;;16.43;100.00
29169;BME280;16219;42.864;23.360;2023-04-30T11:01:57;95619.50;;;16.24;100.00
29169;BME280;16219;42.864;23.360;2023-04-30T11:04:24;95618.53;;;16.32;100.00
29169;BME280;16219;42.864;23.360;2023-04-30T11:07:01;95616.63;;;16.13;100.00
29169;BME280;16219;42.864;23.360;2023-04-30T11:09:35;95615.59;;;15.83;100.00
29169;BME280;16219;42.864;23.360;2023-04-30T11:12:08;95612.56;;;15.65;100.00
29169;BME280;16219;42.864;23.360;2023-04-30T11:14:40;95614.53;;;15.52;100.00
29169;BME280;16219;42.864;23.360;2023-04-30T11:17:09;95612.38;;;15.58;100.00
29169;BME280;16219;42.864;23.360;2023-04-30T11:19:45;95623.00;;;15.58;100.00
29169;BME280;16219;42.864;23.360;2023-04-30T11:22:18;95618.97;;;15.64;100.00
29169;BME280;16219;42.864;23.360;2023-04-30T11:24:49;95614.09;;;15.66;100.00
29169;BME280;16219;42.864;23.360;2023-04-30T11:27:19;95607.53;;;15.79;100.00
29169;BME280;16219;42.864;23.360;2023-04-30T11:29:49;95606.88;;;16.21;100.00
29169;BME280;16219;42.864;23.360;2023-04-30T11:32:17;95608.00;;;16.39;100.00
29169;BME280;16219;42.864;23.360;2023-04-30T11:34:46;95609.22;;;16.65;100.00
29169;BME280;16219;42.864;23.360;2023-04-30T11:37:18;95610.50;;;16.71;100.00
29169;BME280;16219;42.864;23.360;2023-04-30T11:39:46;95602.25;;;16.57;100.00
29169;BME280;16219;42.864;23.360;2023-04-30T11:42:18;95612.53;;;16.58;100.00
29169;BME280;16219;42.864;23.360;2023-04-30T11:44:45;95614.16;;;16.43;100.00
29169;BME280;16219;42.864;23.360;2023-04-30T11:47:14;95607.66;;;16.21;100.00
29169;BME280;16219;42.864;23.360;2023-04-30T11:49:42;95616.53;;;16.10;100.00
29169;BME280;16219;42.864;23.360;2023-04-30T11:52:12;95622.63;;;15.91;100.00
29169;BME280;16219;42.864;23.360;2023-04-30T11:54:39;95629.53;;;15.60;100.00
29169;BME280;16219;42.864;23.360;2023-04-30T11:57:07;95616.25;;;15.44;100.00
29169;BME280;16219;42.864;23.360;2023-04-30T11:59:39;95604.34;;;15.38;100.00
29169;BME280;16219;42.864;23.360;2023-04-30T12:02:07;95595.34;;;15.43;100.00
29169;BME280;16219;42.864;23.360;2023-04-30T12:04:35;95607.50;;;15.44;100.00
29169;BME280;16219;42.864;23.360;2023-04-30T12:07:06;95597.66;;;15.44;100.00
29169;BME280;16219;42.864;23.360;2023-04-30T12:09:52;95605.03;;;15.51;100.00
29169;BME280;16219;42.864;23.360;2023-04-30T12:12:26;95603.53;;;15.69;100.00
29169;BME280;16219;42.864;23.360;2023-04-30T12:14:53;95594.53;;;15.74;100.00
29169;BME280;16219;42.864;23.360;2023-04-30T12:17:31;95590.34;;;15.73;100.00
29169;BME280;16219;42.864;23.360;2023-04-30T12:20:00;95583.97;;;15.62;100.00
29169;BME280;16219;42.864;23.360;2023-04-30T12:22:29;95591.59;;;15.79;100.00
29169;BME280;16219;42.864;23.360;2023-04-30T12:24:58;95588.16;;;15.79;100.00
29169;BME280;16219;42.864;23.360;2023-04-30T12:27:27;95589.97;;;15.74;100.00
29169;BME280;16219;42.864;23.360;2023-04-30T12:32:25;95530.78;;;15.78;100.00
29169;BME280;16219;42.864;23.360;2023-04-30T12:34:57;95557.50;;;16.23;100.00
29169;BME280;16219;42.864;23.360;2023-04-30T12:37:31;95579.72;;;16.73;100.00
29169;BME280;16219;42.864;23.360;2023-04-30T12:39:58;95564.41;;;16.90;100.00
29169;BME280;16219;42.864;23.360;2023-04-30T12:42:30;95578.25;;;17.22;100.00
29169;BME280;16219;42.864;23.360;2023-04-30T12:44:58;95582.06;;;17.24;100.00
29169;BME280;16219;42.864;23.360;2023-04-30T12:47:26;95512.47;;;16.57;100.00
29169;BME280;16219;42.864;23.360;2023-04-30T12:49:54;95577.06;;;17.19;100.00
29169;BME280;16219;42.864;23.360;2023-04-30T12:52:23;95535.03;;;16.86;100.00
29169;BME280;16219;42.864;23.360;2023-04-30T12:54:53;95508.06;;;16.68;100.00
29169;BME280;16219;42.864;23.360;2023-04-30T12:57:20;95557.88;;;17.10;100.00